Time;durP1;ratioP1;P1;durP2;ratioP2;P2;SDS_P1;SDS_P2;PMS_P1;PMS_P2;Temp;Humidity;BMP_temperature;BMP_pressure;BME280_temperature;BME280_humidity;BME280_pressure;Samples;Min_cycle;Max_cycle;Signal;HPM_P1;HPM_P2
2021/11/29 00:02:14;;;;;;;13.18;10.18;;;3.50;92.30;;;;;;4968980;28;20635;-77
2021/11/29 00:04:43;;;;;;;10.95;8.77;;;3.60;93.10;;;;;;4983198;28;21399;-74
2021/11/29 00:07:32;;;;;;;10.23;8.48;;;3.60;93.10;;;;;;4979101;28;20219;-75
2021/11/29 00:11:12;;;;;;;;;;;;;;;;;;;;;
2021/11/29 00:13:55;;;;;;;11.25;9.27;;;3.40;92.90;;;;;;4978212;28;20228;-75
2021/11/29 00:16:31;;;;;;;11.80;8.52;;;3.30;93.10;;;;;;4978770;28;20313;-79
2021/11/29 00:19:39;;;;;;;13.15;8.80;;;3.20;93.80;;;;;;4975916;28;20747;-76
2021/11/29 00:22:06;;;;;;;13.15;9.75;;;3.10;94.30;;;;;;4973680;28;20213;-79
2021/11/29 00:24:33;;;;;;;13.15;9.63;;;3.00;94.40;;;;;;4976925;28;20247;-76
2021/11/29 00:26:59;;;;;;;12.20;9.30;;;3.00;95.10;;;;;;4977083;28;20205;-75
2021/11/29 00:29:26;;;;;;;11.05;8.63;;;3.00;95.40;;;;;;4977393;28;20212;-76
2021/11/29 00:31:54;;;;;;;13.20;9.50;;;3.00;95.80;;;;;;4986869;28;20284;-77
2021/11/29 00:34:21;;;;;;;9.80;8.20;;;3.00;96.00;;;;;;4988069;28;20228;-78
2021/11/29 00:36:48;;;;;;;11.52;8.48;;;3.00;96.20;;;;;;4982361;28;20212;-80
2021/11/29 00:39:17;;;;;;;11.50;8.20;;;3.00;96.20;;;;;;4981787;28;20199;-77
2021/11/29 00:42:27;;;;;;;;;;;;;;;;;;;;;
2021/11/29 00:44:54;;;;;;;10.07;7.85;;;3.00;95.80;;;;;;4979251;28;20228;-77
2021/11/29 00:47:22;;;;;;;10.45;8.10;;;3.00;95.40;;;;;;4979243;28;20552;-75
2021/11/29 00:50:30;;;;;;;;;;;;;;;;;;;;;
2021/11/29 00:52:57;;;;;;;8.95;7.45;;;2.90;94.60;;;;;;4963509;28;20227;-76
2021/11/29 00:55:55;;;;;;;12.48;8.57;;;2.90;94.40;;;;;;4975591;28;20236;-76
2021/11/29 00:58:21;;;;;;;10.45;7.75;;;2.90;93.90;;;;;;4977334;28;20255;-76
2021/11/29 01:00:49;;;;;;;10.40;7.50;;;2.90;93.20;;;;;;4975024;28;20791;-78
2021/11/29 01:03:17;;;;;;;10.68;7.55;;;2.90;92.60;;;;;;4976657;28;20207;-77
2021/11/29 01:05:44;;;;;;;9.50;7.22;;;2.80;92.20;;;;;;4976466;28;20244;-76
2021/11/29 01:08:11;;;;;;;9.80;7.53;;;2.80;92.10;;;;;;4975671;28;20587;-77
2021/11/29 01:10:37;;;;;;;8.80;7.25;;;2.70;91.80;;;;;;4975694;28;20208;-76
2021/11/29 01:13:05;;;;;;;10.77;8.00;;;2.70;91.70;;;;;;4974758;28;20229;-75
2021/11/29 01:15:34;;;;;;;10.80;8.25;;;2.70;91.90;;;;;;4973938;28;20234;-75
2021/11/29 01:18:07;;;;;;;9.57;7.40;;;2.70;92.00;;;;;;4974144;28;20216;-76
2021/11/29 01:20:36;;;;;;;10.25;7.45;;;2.70;92.00;;;;;;4974200;28;20211;-75
2021/11/29 01:23:03;;;;;;;10.35;7.70;;;2.70;92.20;;;;;;4973778;28;20288;-75
2021/11/29 01:25:30;;;;;;;13.60;8.60;;;2.70;92.30;;;;;;4974681;28;20223;-75
2021/11/29 01:27:57;;;;;;;9.52;7.85;;;2.70;92.00;;;;;;4975652;28;20200;-75
2021/11/29 01:30:24;;;;;;;11.75;8.82;;;2.70;92.00;;;;;;4974274;28;20239;-75
2021/11/29 01:32:51;;;;;;;12.02;8.48;;;2.80;91.90;;;;;;4973636;28;20239;-75
2021/11/29 01:35:17;;;;;;;10.02;8.38;;;2.80;92.00;;;;;;4974423;28;20237;-75
2021/11/29 01:37:46;;;;;;;8.85;7.75;;;2.90;92.30;;;;;;4973952;28;20208;-76
2021/11/29 01:40:13;;;;;;;11.40;8.23;;;3.00;92.10;;;;;;4974365;28;20214;-76
2021/11/29 01:42:56;;;;;;;10.25;8.38;;;3.00;92.30;;;;;;4973937;28;20212;-76
2021/11/29 01:45:23;;;;;;;10.20;7.25;;;3.00;92.30;;;;;;4974773;28;20235;-76
2021/11/29 01:47:50;;;;;;;11.38;8.40;;;3.10;92.40;;;;;;4974370;28;20692;-76
2021/11/29 01:50:17;;;;;;;10.98;8.35;;;3.00;92.20;;;;;;4973921;28;20204;-76
2021/11/29 01:52:45;;;;;;;12.38;8.50;;;2.90;92.40;;;;;;4974068;28;20216;-76
2021/11/29 01:55:12;;;;;;;10.48;8.32;;;2.90;92.70;;;;;;4973728;28;20713;-76
2021/11/29 01:57:38;;;;;;;10.35;7.90;;;2.80;93.00;;;;;;4973371;28;20518;-76
2021/11/29 02:00:08;;;;;;;10.98;8.35;;;2.80;93.30;;;;;;4974394;28;20239;-75
2021/11/29 02:02:35;;;;;;;13.70;10.02;;;2.70;93.50;;;;;;4973413;28;20207;-75
2021/11/29 02:05:03;;;;;;;13.57;9.23;;;2.60;93.60;;;;;;4973914;28;20290;-75
2021/11/29 02:07:30;;;;;;;12.02;9.18;;;2.60;94.10;;;;;;4974934;28;20210;-75
2021/11/29 02:09:58;;;;;;;13.68;9.25;;;2.70;94.30;;;;;;4973443;28;20219;-75
2021/11/29 02:12:25;;;;;;;11.18;8.05;;;2.70;94.30;;;;;;4973389;28;20573;-76
2021/11/29 02:14:52;;;;;;;11.23;8.45;;;2.70;94.30;;;;;;4973438;28;20717;-76
2021/11/29 02:17:19;;;;;;;12.98;9.40;;;2.70;94.00;;;;;;4973407;28;20213;-75
2021/11/29 02:19:47;;;;;;;12.23;8.88;;;2.70;94.30;;;;;;4973910;28;20212;-74
2021/11/29 02:22:16;;;;;;;15.60;9.38;;;2.70;94.20;;;;;;4973863;28;20236;-75
2021/11/29 02:24:43;;;;;;;10.93;8.52;;;2.70;94.20;;;;;;4973611;28;20245;-76
2021/11/29 02:29:53;;;;;;;13.63;9.23;;;2.90;94.30;;;;;;4936346;29;20209;-76
2021/11/29 02:32:20;;;;;;;15.52;9.65;;;2.90;93.80;;;;;;4952138;29;20218;-76
2021/11/29 02:34:48;;;;;;;13.45;8.93;;;2.90;93.60;;;;;;4932910;29;20340;-74
2021/11/29 02:37:16;;;;;;;12.52;9.68;;;2.90;93.00;;;;;;4936367;29;20552;-74
2021/11/29 02:39:44;;;;;;;11.60;8.82;;;2.80;92.90;;;;;;4935305;29;20221;-74
2021/11/29 02:42:13;;;;;;;14.60;9.82;;;2.80;92.90;;;;;;4933295;29;20319;-75
2021/11/29 02:44:41;;;;;;;14.98;10.55;;;2.80;92.60;;;;;;4932039;29;20229;-75
2021/11/29 02:47:09;;;;;;;14.20;10.48;;;2.80;92.50;;;;;;4933047;29;20291;-76
2021/11/29 02:49:35;;;;;;;14.35;10.30;;;2.80;92.50;;;;;;4933615;29;20224;-76
2021/11/29 02:52:05;;;;;;;13.80;9.77;;;2.80;92.70;;;;;;4931526;29;20244;-74
2021/11/29 02:54:36;;;;;;;13.60;9.73;;;2.90;92.70;;;;;;4932304;29;20241;-76
2021/11/29 02:57:05;;;;;;;15.13;9.25;;;2.90;92.70;;;;;;4931813;29;20685;-75
2021/11/29 02:59:35;;;;;;;14.38;10.38;;;3.00;92.50;;;;;;4926008;28;20213;-76
2021/11/29 03:02:04;;;;;;;15.80;10.38;;;2.90;91.70;;;;;;4973313;28;20245;-75
2021/11/29 03:04:33;;;;;;;13.60;10.20;;;2.90;91.50;;;;;;4973793;28;20232;-76
2021/11/29 03:07:01;;;;;;;14.80;9.50;;;2.90;91.60;;;;;;4973112;28;20238;-75
2021/11/29 03:09:29;;;;;;;15.98;10.27;;;3.00;91.70;;;;;;4973279;28;20242;-76
2021/11/29 03:11:57;;;;;;;16.88;11.40;;;2.90;91.30;;;;;;4973269;28;20204;-76
2021/11/29 03:14:25;;;;;;;18.50;11.98;;;2.90;91.30;;;;;;4977982;28;20231;-76
2021/11/29 03:16:54;;;;;;;20.38;13.82;;;2.90;91.40;;;;;;4974296;28;20226;-76
2021/11/29 03:19:21;;;;;;;16.67;12.10;;;2.90;91.40;;;;;;4973145;28;20218;-75
2021/11/29 03:21:48;;;;;;;15.30;11.32;;;2.90;91.50;;;;;;4975028;28;20216;-75
2021/11/29 03:24:15;;;;;;;14.13;10.20;;;2.80;91.10;;;;;;4985653;28;20699;-76
2021/11/29 03:26:42;;;;;;;18.88;11.30;;;2.80;91.30;;;;;;4990866;28;20212;-77
2021/11/29 03:29:13;;;;;;;17.80;11.50;;;2.80;91.30;;;;;;4991913;28;20208;-76
2021/11/29 03:31:41;;;;;;;15.80;10.90;;;2.80;91.60;;;;;;4986636;28;20220;-76
2021/11/29 03:34:11;;;;;;;19.55;11.63;;;2.90;91.30;;;;;;4975081;28;20232;-78
2021/11/29 03:36:41;;;;;;;20.92;12.30;;;2.80;90.80;;;;;;4955520;28;20209;-78
2021/11/29 03:39:11;;;;;;;20.98;12.18;;;2.80;90.80;;;;;;4969938;28;20212;-75
2021/11/29 03:41:38;;;;;;;15.52;10.48;;;2.80;90.80;;;;;;4976797;28;20672;-75
2021/11/29 03:44:06;;;;;;;20.83;12.52;;;2.80;90.80;;;;;;4977799;28;20557;-76
2021/11/29 03:46:34;;;;;;;16.58;11.15;;;2.80;90.80;;;;;;4976794;28;20227;-74
2021/11/29 03:49:01;;;;;;;17.42;10.57;;;2.80;90.80;;;;;;4977105;28;20212;-77
2021/11/29 03:51:28;;;;;;;20.13;12.20;;;2.80;90.20;;;;;;4976271;28;20204;-75
2021/11/29 03:53:55;;;;;;;24.33;11.93;;;2.80;90.20;;;;;;4975973;28;20744;-75
2021/11/29 03:56:22;;;;;;;17.20;12.38;;;2.80;90.00;;;;;;4975725;28;20232;-75
2021/11/29 03:58:49;;;;;;;15.48;9.75;;;2.80;89.20;;;;;;4976138;28;20212;-77
2021/11/29 04:01:16;;;;;;;16.13;9.55;;;2.80;89.60;;;;;;4974433;28;20540;-76
2021/11/29 04:03:44;;;;;;;15.27;10.18;;;2.80;88.00;;;;;;4975871;28;20577;-75
2021/11/29 04:06:11;;;;;;;14.38;9.43;;;2.80;87.80;;;;;;4973644;28;20247;-74
2021/11/29 04:08:37;;;;;;;15.45;10.43;;;2.80;87.60;;;;;;4956633;28;20224;-75
2021/11/29 04:11:05;;;;;;;13.40;9.00;;;2.70;87.70;;;;;;4956540;28;20212;-74
2021/11/29 04:13:32;;;;;;;16.70;10.13;;;2.80;88.50;;;;;;4974102;28;20238;-74
2021/11/29 04:15:58;;;;;;;12.82;7.60;;;2.70;88.60;;;;;;4966524;28;20542;-75
2021/11/29 04:18:25;;;;;;;12.45;8.30;;;2.70;88.80;;;;;;4956890;28;20230;-74
2021/11/29 04:20:54;;;;;;;14.32;7.63;;;2.70;88.20;;;;;;4959127;28;20208;-74
2021/11/29 04:23:20;;;;;;;13.02;8.68;;;2.60;87.60;;;;;;4966061;28;20613;-74
2021/11/29 04:25:51;;;;;;;13.55;8.57;;;2.60;88.70;;;;;;4975386;28;20234;-74
2021/11/29 04:28:18;;;;;;;13.82;8.32;;;2.60;89.90;;;;;;4963767;28;20231;-74
2021/11/29 04:30:45;;;;;;;11.63;7.70;;;2.60;90.60;;;;;;4971981;28;20671;-73
2021/11/29 04:33:13;;;;;;;8.95;6.95;;;2.60;90.10;;;;;;4965697;28;20262;-74
2021/11/29 04:35:39;;;;;;;10.57;6.70;;;2.50;89.20;;;;;;4974779;28;20240;-75
2021/11/29 04:38:08;;;;;;;10.98;7.03;;;2.50;89.40;;;;;;4975396;28;20548;-76
2021/11/29 04:40:35;;;;;;;11.15;7.85;;;2.50;89.10;;;;;;4966063;28;20204;-75
2021/11/29 04:43:02;;;;;;;13.35;7.40;;;2.50;88.40;;;;;;4955997;28;20215;-75
2021/11/29 04:45:30;;;;;;;10.13;6.47;;;2.60;88.90;;;;;;4974438;28;20223;-74
2021/11/29 04:47:57;;;;;;;11.43;6.70;;;2.50;87.50;;;;;;4960391;28;20707;-74
2021/11/29 04:50:24;;;;;;;12.27;7.50;;;2.60;88.40;;;;;;4956068;28;20208;-75
2021/11/29 04:52:51;;;;;;;10.65;7.43;;;2.60;88.90;;;;;;4955468;28;20230;-75
2021/11/29 04:55:19;;;;;;;15.45;9.75;;;2.60;89.60;;;;;;4957425;28;20257;-75
2021/11/29 04:57:46;;;;;;;10.63;7.93;;;2.60;90.70;;;;;;4962823;28;20303;-76
2021/11/29 05:00:20;;;;;;;14.68;9.50;;;2.60;90.70;;;;;;4961488;28;20662;-75
2021/11/29 05:02:47;;;;;;;19.85;10.48;;;2.50;90.70;;;;;;4955782;28;20208;-76
2021/11/29 05:05:14;;;;;;;21.63;10.73;;;2.40;91.60;;;;;;4961818;28;20235;-75
2021/11/29 05:07:41;;;;;;;19.08;10.55;;;2.40;92.20;;;;;;4975740;28;20212;-75
2021/11/29 05:10:09;;;;;;;19.63;11.23;;;2.40;93.00;;;;;;4972748;28;20203;-75
2021/11/29 05:12:37;;;;;;;15.20;10.10;;;2.40;93.20;;;;;;4958579;28;20211;-74
2021/11/29 05:15:06;;;;;;;20.38;11.43;;;2.30;94.10;;;;;;4978384;28;20711;-75
2021/11/29 05:17:33;;;;;;;15.93;10.48;;;2.40;94.20;;;;;;4986717;28;20209;-76
2021/11/29 05:20:00;;;;;;;18.67;11.30;;;2.40;94.80;;;;;;4987352;28;20217;-75
2021/11/29 05:22:26;;;;;;;22.08;12.20;;;2.40;94.70;;;;;;4984110;28;20207;-75
2021/11/29 05:24:53;;;;;;;20.38;11.85;;;2.30;95.10;;;;;;4965867;28;20232;-76
2021/11/29 05:27:20;;;;;;;18.88;12.55;;;2.20;95.20;;;;;;4958176;28;20214;-76
2021/11/29 05:29:48;;;;;;;19.52;12.05;;;2.10;95.80;;;;;;4969440;28;20208;-75
2021/11/29 05:32:15;;;;;;;19.27;11.57;;;2.10;96.50;;;;;;4968153;28;20208;-75
2021/11/29 05:34:42;;;;;;;19.02;12.60;;;2.00;96.70;;;;;;4955376;28;20727;-76
2021/11/29 05:37:09;;;;;;;22.67;13.48;;;1.90;97.40;;;;;;4960191;28;20208;-76
2021/11/29 05:39:35;;;;;;;27.02;13.73;;;1.90;97.90;;;;;;4974863;28;20270;-76
2021/11/29 05:42:02;;;;;;;21.75;12.82;;;1.80;98.20;;;;;;4970707;28;20214;-76
2021/11/29 05:44:30;;;;;;;23.83;12.30;;;1.70;99.00;;;;;;4969464;28;20208;-74
2021/11/29 05:46:58;;;;;;;21.58;12.93;;;1.60;99.10;;;;;;4972894;28;20642;-75
2021/11/29 05:49:25;;;;;;;27.35;15.25;;;1.60;99.50;;;;;;4973972;28;20210;-75
2021/11/29 05:51:53;;;;;;;20.25;12.07;;;1.60;99.90;;;;;;4975705;28;20297;-74
2021/11/29 05:54:20;;;;;;;21.60;13.80;;;1.50;99.90;;;;;;4972344;28;20237;-76
2021/11/29 05:56:46;;;;;;;22.77;13.13;;;1.50;99.90;;;;;;4972410;28;20301;-76
2021/11/29 05:59:13;;;;;;;23.25;13.60;;;1.50;99.90;;;;;;4970908;28;20209;-75
2021/11/29 06:01:40;;;;;;;22.95;13.45;;;1.40;99.90;;;;;;4974857;28;20299;-75
2021/11/29 06:04:08;;;;;;;21.50;14.65;;;1.40;99.90;;;;;;4973806;28;20213;-76
2021/11/29 06:06:35;;;;;;;26.02;13.05;;;1.40;99.90;;;;;;4974771;28;20239;-74
2021/11/29 06:09:02;;;;;;;26.08;14.73;;;1.40;99.90;;;;;;4975393;28;20218;-76
2021/11/29 06:11:28;;;;;;;26.73;14.93;;;1.30;99.90;;;;;;4957318;28;20210;-75
2021/11/29 06:13:55;;;;;;;25.88;14.45;;;1.30;99.90;;;;;;4967203;28;20206;-75
2021/11/29 06:16:22;;;;;;;26.50;14.25;;;1.30;99.90;;;;;;4960731;29;20230;-75
2021/11/29 06:18:49;;;;;;;26.05;14.70;;;1.30;99.90;;;;;;4956165;28;20222;-76
2021/11/29 06:21:26;;;;;;;24.52;13.73;;;1.30;99.90;;;;;;4971266;28;20214;-76
2021/11/29 06:23:53;;;;;;;24.23;14.45;;;1.40;99.90;;;;;;4974627;28;20205;-76
2021/11/29 06:26:21;;;;;;;26.27;14.25;;;1.30;99.90;;;;;;4961013;28;20351;-76
2021/11/29 06:28:48;;;;;;;24.42;15.27;;;1.30;99.90;;;;;;4960010;28;20205;-75
2021/11/29 06:31:15;;;;;;;25.80;14.93;;;1.20;99.90;;;;;;4978010;28;20213;-75
2021/11/29 06:33:42;;;;;;;27.88;14.75;;;1.20;99.90;;;;;;4974775;28;20234;-76
2021/11/29 06:36:09;;;;;;;26.95;15.15;;;1.10;99.90;;;;;;4963188;28;20229;-76
2021/11/29 06:38:37;;;;;;;31.42;15.60;;;1.10;99.90;;;;;;4956815;28;20213;-76
2021/11/29 06:41:04;;;;;;;30.55;15.10;;;1.10;99.90;;;;;;4964814;28;20569;-76
2021/11/29 06:43:31;;;;;;;25.05;15.30;;;1.10;99.90;;;;;;4974556;28;20325;-76
2021/11/29 06:45:58;;;;;;;28.70;15.23;;;1.10;99.90;;;;;;4966280;28;20248;-77
2021/11/29 06:48:25;;;;;;;29.67;14.00;;;1.10;99.90;;;;;;4970884;28;20531;-77
2021/11/29 06:50:53;;;;;;;31.02;15.57;;;1.00;99.90;;;;;;4966486;28;20222;-76
2021/11/29 06:53:24;;;;;;;26.98;15.40;;;1.00;99.90;;;;;;4955183;28;20689;-75
2021/11/29 06:55:55;;;;;;;27.55;14.60;;;1.00;99.90;;;;;;4954933;28;20552;-75
2021/11/29 06:58:22;;;;;;;27.35;14.63;;;1.00;99.90;;;;;;4954362;28;20300;-74
2021/11/29 07:00:50;;;;;;;27.50;15.77;;;1.00;99.90;;;;;;4954660;28;20205;-76
2021/11/29 07:03:17;;;;;;;27.75;15.45;;;1.00;99.90;;;;;;4967661;28;20244;-75
2021/11/29 07:05:44;;;;;;;25.83;14.63;;;1.00;99.90;;;;;;5025539;23;20235;-79
2021/11/29 07:08:11;;;;;;;28.27;15.80;;;1.00;99.90;;;;;;5022041;28;20304;-77
2021/11/29 07:10:41;;;;;;;27.38;14.60;;;1.00;99.90;;;;;;5015175;28;20226;-77
2021/11/29 07:13:10;;;;;;;33.85;15.68;;;1.00;99.90;;;;;;5016885;28;20758;-78
2021/11/29 07:15:38;;;;;;;30.80;16.15;;;1.00;99.90;;;;;;5012204;28;20225;-78
2021/11/29 07:18:05;;;;;;;30.65;15.05;;;1.00;99.90;;;;;;5000319;28;20209;-77
2021/11/29 07:20:32;;;;;;;27.95;14.40;;;1.00;99.90;;;;;;5018028;28;20218;-77
2021/11/29 07:23:00;;;;;;;30.27;15.27;;;1.00;99.90;;;;;;5018851;28;20233;-78
2021/11/29 07:25:27;;;;;;;26.50;15.60;;;1.00;99.90;;;;;;5004466;28;20224;-77
2021/11/29 07:27:54;;;;;;;34.03;15.40;;;0.90;99.90;;;;;;5010753;28;20204;-78
2021/11/29 07:30:25;;;;;;;28.02;15.35;;;1.00;99.90;;;;;;5016420;28;20602;-78
2021/11/29 07:32:54;;;;;;;28.27;14.50;;;1.00;99.90;;;;;;5016289;28;20196;-78
2021/11/29 07:35:21;;;;;;;28.63;14.18;;;1.00;99.90;;;;;;5016209;28;20227;-78
2021/11/29 07:37:48;;;;;;;28.52;15.00;;;1.00;99.90;;;;;;5017133;28;20217;-78
2021/11/29 07:40:15;;;;;;;26.65;15.55;;;1.00;99.90;;;;;;5014602;28;20215;-77
2021/11/29 07:42:42;;;;;;;31.70;16.30;;;1.00;99.90;;;;;;5007517;28;20208;-76
2021/11/29 07:45:11;;;;;;;30.67;15.15;;;1.10;99.90;;;;;;5006253;28;20219;-77
2021/11/29 07:47:40;;;;;;;37.35;18.20;;;1.10;99.90;;;;;;5017715;28;20213;-77
2021/11/29 07:50:09;;;;;;;34.58;17.27;;;1.10;99.90;;;;;;5021045;28;20213;-78
2021/11/29 07:52:36;;;;;;;31.05;16.92;;;1.10;99.90;;;;;;5029243;28;20307;-77
2021/11/29 07:55:07;;;;;;;32.50;17.40;;;1.20;99.90;;;;;;5019426;28;20229;-75
2021/11/29 07:57:34;;;;;;;30.95;17.33;;;1.20;99.90;;;;;;5011666;28;20212;-76
2021/11/29 08:00:05;;;;;;;27.10;15.63;;;1.20;99.90;;;;;;5019801;28;20203;-77
2021/11/29 08:02:32;;;;;;;29.63;17.60;;;1.30;99.90;;;;;;5009189;28;20213;-76
2021/11/29 08:05:00;;;;;;;29.50;17.67;;;1.40;99.90;;;;;;4999944;28;20240;-76
2021/11/29 08:07:27;;;;;;;35.55;16.48;;;1.50;99.90;;;;;;5015058;28;20304;-77
2021/11/29 08:09:54;;;;;;;29.35;17.23;;;1.50;99.90;;;;;;5013149;28;20201;-77
2021/11/29 08:12:21;;;;;;;29.08;17.83;;;1.60;99.90;;;;;;5005571;28;20211;-77
2021/11/29 08:14:48;;;;;;;35.90;17.90;;;1.70;99.90;;;;;;5007157;28;20225;-77
2021/11/29 08:17:15;;;;;;;32.53;16.45;;;1.90;99.90;;;;;;5017611;28;20218;-77
2021/11/29 08:19:42;;;;;;;30.02;15.85;;;2.10;99.90;;;;;;5000684;28;20276;-77
2021/11/29 08:22:10;;;;;;;22.98;14.48;;;2.30;99.90;;;;;;5015867;28;20290;-78
2021/11/29 08:24:37;;;;;;;26.65;14.65;;;2.40;99.90;;;;;;5013538;28;20566;-78
2021/11/29 08:27:04;;;;;;;30.25;15.38;;;2.60;99.90;;;;;;4998828;28;20214;-76
2021/11/29 08:29:31;;;;;;;22.85;14.43;;;2.60;99.90;;;;;;4997257;28;20212;-76
2021/11/29 08:31:58;;;;;;;23.83;13.05;;;2.80;99.90;;;;;;4996920;28;20222;-76
2021/11/29 08:34:25;;;;;;;19.10;11.63;;;2.80;99.90;;;;;;5001719;28;20321;-75
2021/11/29 08:36:52;;;;;;;19.10;11.40;;;2.90;99.90;;;;;;5016207;28;20234;-75
2021/11/29 08:39:20;;;;;;;19.67;11.50;;;2.90;97.50;;;;;;5016668;28;20202;-76
2021/11/29 08:41:47;;;;;;;23.70;12.05;;;2.90;95.00;;;;;;5017004;28;20216;-77
2021/11/29 08:44:14;;;;;;;25.73;12.00;;;2.80;93.70;;;;;;5016936;28;20229;-79
2021/11/29 08:46:48;;;;;;;23.42;10.85;;;2.80;92.70;;;;;;5017051;28;20233;-77
2021/11/29 08:49:15;;;;;;;20.88;11.23;;;2.80;92.10;;;;;;4997370;28;20577;-77
2021/11/29 08:51:42;;;;;;;18.98;11.45;;;2.90;91.80;;;;;;4997032;28;20320;-78
2021/11/29 08:54:10;;;;;;;19.42;11.02;;;2.80;90.70;;;;;;5017159;28;20295;-79
2021/11/29 08:56:38;;;;;;;22.00;12.30;;;2.90;90.80;;;;;;5016398;28;20235;-78
2021/11/29 08:59:05;;;;;;;18.58;9.80;;;2.90;88.60;;;;;;5006285;28;20207;-78
2021/11/29 09:01:32;;;;;;;17.40;11.23;;;2.90;87.50;;;;;;5015681;28;20218;-78
2021/11/29 09:03:59;;;;;;;19.50;10.68;;;3.00;85.70;;;;;;5013952;28;20210;-77
2021/11/29 09:06:26;;;;;;;17.63;10.30;;;3.10;84.50;;;;;;5016218;28;20248;-77
2021/11/29 09:08:53;;;;;;;16.65;10.18;;;3.20;84.00;;;;;;5015292;28;20304;-79
2021/11/29 09:11:20;;;;;;;15.40;9.45;;;3.30;82.30;;;;;;5015608;28;20577;-78
2021/11/29 09:13:49;;;;;;;14.45;9.93;;;3.30;81.80;;;;;;5016712;28;20221;-76
2021/11/29 09:16:18;;;;;;;14.48;8.88;;;3.40;80.00;;;;;;5018668;28;20234;-77
2021/11/29 09:18:45;;;;;;;15.05;9.15;;;3.30;77.20;;;;;;5015235;28;20206;-79
2021/11/29 09:21:14;;;;;;;13.00;7.18;;;3.40;77.30;;;;;;5021683;28;20344;-79
2021/11/29 09:23:42;;;;;;;15.02;8.55;;;3.30;74.40;;;;;;5018028;28;20210;-79
2021/11/29 09:26:09;;;;;;;12.25;7.97;;;3.40;74.90;;;;;;5020285;28;20239;-78
2021/11/29 09:28:38;;;;;;;12.73;7.80;;;3.40;73.80;;;;;;5004236;28;20211;-79
2021/11/29 09:31:06;;;;;;;10.60;6.82;;;3.50;72.80;;;;;;5001461;28;20218;-78
2021/11/29 09:33:34;;;;;;;10.27;6.70;;;3.60;72.30;;;;;;5012083;28;20214;-78
2021/11/29 09:36:01;;;;;;;12.70;7.65;;;3.70;71.90;;;;;;5016665;28;20311;-77
2021/11/29 09:38:28;;;;;;;15.77;7.25;;;3.60;71.80;;;;;;5016358;28;20721;-79
2021/11/29 09:40:55;;;;;;;11.32;6.93;;;3.60;71.80;;;;;;5028559;28;20211;-78
2021/11/29 09:43:22;;;;;;;14.40;7.53;;;3.70;71.90;;;;;;5022672;28;20207;-77
2021/11/29 09:45:51;;;;;;;14.15;8.27;;;3.80;72.00;;;;;;5021402;28;20228;-79
2021/11/29 09:48:20;;;;;;;12.25;7.25;;;3.90;72.10;;;;;;5015503;28;20199;-76
2021/11/29 09:50:51;;;;;;;10.48;7.45;;;4.00;71.10;;;;;;5016359;28;20215;-76
2021/11/29 09:53:20;;;;;;;10.57;7.25;;;4.00;70.60;;;;;;5014959;28;20219;-76
2021/11/29 09:55:47;;;;;;;12.65;6.68;;;4.00;70.10;;;;;;4999521;28;20262;-76
2021/11/29 09:58:14;;;;;;;10.60;6.90;;;3.90;69.50;;;;;;4996732;28;20642;-78
2021/11/29 10:00:43;;;;;;;10.73;7.30;;;3.90;69.40;;;;;;5014380;28;20273;-75
2021/11/29 10:03:10;;;;;;;11.52;7.20;;;3.90;69.20;;;;;;5015265;28;20211;-77
2021/11/29 10:05:39;;;;;;;13.70;7.35;;;3.80;69.60;;;;;;5015723;28;20224;-77
2021/11/29 10:08:21;;;;;;;15.95;8.27;;;3.70;69.30;;;;;;5002144;28;20208;-77
2021/11/29 10:10:50;;;;;;;15.18;7.72;;;3.50;69.80;;;;;;4996820;28;20223;-76
2021/11/29 10:13:17;;;;;;;9.80;6.60;;;3.50;71.70;;;;;;5012485;28;20294;-77
2021/11/29 10:15:45;;;;;;;13.50;7.13;;;3.50;71.70;;;;;;5029811;28;20241;-78
2021/11/29 10:18:14;;;;;;;11.75;6.70;;;3.50;71.70;;;;;;5018015;28;20234;-76
2021/11/29 10:20:55;;;;;;;8.88;6.05;;;3.50;70.30;;;;;;5012430;28;20218;-75
2021/11/29 10:23:29;;;;;;;13.35;6.45;;;3.40;69.30;;;;;;5012477;28;20195;-77
2021/11/29 10:25:58;;;;;;;12.90;8.27;;;3.40;68.00;;;;;;5029232;28;20231;-77
2021/11/29 10:28:28;;;;;;;7.88;6.20;;;3.50;68.70;;;;;;5013603;28;20212;-76
2021/11/29 10:31:14;;;;;;;13.50;6.47;;;3.60;67.20;;;;;;5005992;28;20215;-78
2021/11/29 10:33:57;;;;;;;11.60;6.70;;;3.70;67.60;;;;;;5018768;28;20679;-78
2021/11/29 10:36:27;;;;;;;11.13;6.78;;;3.80;67.90;;;;;;5021290;28;20321;-78
2021/11/29 10:38:58;;;;;;;12.70;6.72;;;3.90;66.80;;;;;;5019180;28;20199;-77
2021/11/29 10:41:27;;;;;;;9.32;5.72;;;4.10;65.90;;;;;;5005562;28;20291;-78
2021/11/29 10:43:56;;;;;;;8.68;6.32;;;4.20;65.90;;;;;;4999303;28;20215;-76
2021/11/29 10:46:25;;;;;;;13.32;7.10;;;4.30;65.20;;;;;;5015601;28;20274;-77
2021/11/29 10:48:55;;;;;;;12.13;6.50;;;4.40;63.80;;;;;;5016674;28;20227;-76
2021/11/29 10:51:23;;;;;;;8.32;6.15;;;4.30;63.70;;;;;;5000956;28;20637;-75
2021/11/29 10:53:55;;;;;;;9.85;7.05;;;4.50;63.30;;;;;;4996656;28;20679;-75
2021/11/29 10:56:24;;;;;;;10.57;5.88;;;4.70;61.80;;;;;;4996757;28;20238;-76
2021/11/29 10:58:53;;;;;;;7.28;5.80;;;4.80;61.80;;;;;;4996079;28;20737;-75
2021/11/29 11:01:34;;;;;;;11.00;5.95;;;4.80;59.70;;;;;;4996013;28;20214;-76
2021/11/29 11:04:01;;;;;;;10.40;5.82;;;4.70;59.70;;;;;;5003177;28;20644;-77
2021/11/29 11:06:29;;;;;;;8.18;6.20;;;4.60;59.60;;;;;;5015443;28;20635;-77
2021/11/29 11:08:58;;;;;;;11.50;7.35;;;4.40;59.40;;;;;;5015499;28;20250;-75
2021/11/29 11:11:31;;;;;;;9.98;6.00;;;4.40;59.90;;;;;;5015351;28;20315;-76
2021/11/29 11:14:00;;;;;;;10.82;6.88;;;4.40;60.20;;;;;;5015831;28;20242;-75
2021/11/29 11:16:47;;;;;;;12.05;6.35;;;4.40;60.50;;;;;;4998093;28;20682;-76
2021/11/29 11:19:29;;;;;;;9.18;6.00;;;4.40;60.80;;;;;;4996933;28;20307;-77
2021/11/29 11:21:57;;;;;;;9.32;6.57;;;4.30;60.20;;;;;;5015458;28;20212;-77
2021/11/29 11:24:32;;;;;;;8.57;6.07;;;4.20;60.10;;;;;;5015356;28;20207;-74
2021/11/29 11:27:02;;;;;;;14.20;7.47;;;4.20;60.50;;;;;;5015653;28;20550;-75
2021/11/29 11:29:39;;;;;;;14.48;6.25;;;4.20;61.00;;;;;;5006233;28;20203;-76
2021/11/29 11:32:31;;;;;;;9.15;6.30;;;4.30;61.50;;;;;;4998637;28;20282;-76
2021/11/29 11:35:02;;;;;;;12.38;6.85;;;4.40;60.80;;;;;;4995261;28;20323;-76
2021/11/29 11:37:33;;;;;;;8.25;5.90;;;4.50;60.60;;;;;;4996430;28;20269;-76
2021/11/29 11:40:03;;;;;;;10.43;7.20;;;4.50;59.50;;;;;;4995420;28;20549;-76
2021/11/29 11:42:30;;;;;;;9.85;6.85;;;4.30;59.70;;;;;;4995145;28;20203;-76
2021/11/29 11:44:57;;;;;;;10.10;6.45;;;4.20;59.70;;;;;;4994853;28;20323;-75
2021/11/29 11:47:27;;;;;;;10.95;6.10;;;4.20;60.70;;;;;;5011992;28;20266;-77
2021/11/29 11:49:54;;;;;;;8.07;6.43;;;4.20;60.00;;;;;;5028044;28;20211;-77
2021/11/29 11:52:22;;;;;;;9.65;5.85;;;4.30;59.40;;;;;;5021148;28;20203;-76
2021/11/29 11:54:50;;;;;;;8.77;5.53;;;4.40;59.40;;;;;;5015158;28;20239;-76
2021/11/29 11:57:23;;;;;;;6.43;5.70;;;4.30;57.00;;;;;;5007810;28;20238;-75
2021/11/29 12:00:14;;;;;;;8.60;5.93;;;4.00;58.50;;;;;;4994874;28;20315;-76
2021/11/29 12:03:05;;;;;;;9.35;6.93;;;4.10;59.10;;;;;;4997840;28;20238;-76
2021/11/29 12:05:34;;;;;;;12.18;6.60;;;4.10;59.10;;;;;;4998507;28;20237;-77
2021/11/29 12:08:02;;;;;;;10.32;6.80;;;4.10;58.90;;;;;;5010169;28;20254;-76
2021/11/29 12:10:37;;;;;;;13.65;6.85;;;4.00;58.80;;;;;;5023263;28;20227;-76
2021/11/29 12:13:07;;;;;;;10.68;6.63;;;4.00;59.10;;;;;;5005351;28;20210;-77
2021/11/29 12:15:48;;;;;;;10.95;6.82;;;4.00;59.10;;;;;;5006726;28;20278;-78
2021/11/29 12:18:36;;;;;;;8.45;6.20;;;4.10;59.10;;;;;;5029473;28;20192;-77
2021/11/29 12:21:16;;;;;;;9.88;6.85;;;4.10;59.10;;;;;;5014887;28;20676;-79
2021/11/29 12:23:46;;;;;;;11.10;7.03;;;4.10;59.70;;;;;;5014144;28;20211;-78
2021/11/29 12:26:13;;;;;;;12.88;7.22;;;4.00;60.00;;;;;;5001319;28;20240;-76
2021/11/29 12:28:44;;;;;;;9.95;6.60;;;4.00;60.00;;;;;;5000605;28;20305;-76
2021/11/29 12:31:39;;;;;;;11.52;7.25;;;4.00;60.00;;;;;;5000117;28;20275;-79
2021/11/29 12:34:08;;;;;;;12.05;7.05;;;4.10;60.50;;;;;;5007496;28;20212;-78
2021/11/29 12:37:13;;;;;;;9.27;6.85;;;4.20;61.00;;;;;;5010990;28;20275;-78
2021/11/29 12:39:56;;;;;;;9.50;6.75;;;4.20;60.10;;;;;;5012363;28;20253;-79
2021/11/29 12:42:54;;;;;;;9.27;7.20;;;4.20;60.30;;;;;;5002621;28;20199;-76
2021/11/29 12:45:26;;;;;;;8.18;6.97;;;4.20;60.90;;;;;;4994436;28;20267;-77
2021/11/29 12:47:56;;;;;;;12.02;6.97;;;4.10;60.60;;;;;;4997879;28;20192;-77
2021/11/29 12:50:47;;;;;;;7.75;5.63;;;4.10;61.50;;;;;;5002884;28;20250;-78
2021/11/29 12:53:28;;;;;;;7.63;5.70;;;4.10;61.20;;;;;;5000310;28;20279;-78
2021/11/29 12:55:57;;;;;;;8.68;6.15;;;4.10;60.30;;;;;;4997689;28;20232;-77
2021/11/29 12:58:27;;;;;;;10.35;7.63;;;4.10;60.80;;;;;;4996272;28;20661;-76
2021/11/29 13:01:17;;;;;;;9.88;6.97;;;4.10;60.80;;;;;;4998171;28;20703;-77
2021/11/29 13:03:46;;;;;;;6.93;5.05;;;4.10;60.60;;;;;;4998209;28;20189;-78
2021/11/29 13:06:13;;;;;;;6.80;6.03;;;4.20;60.20;;;;;;4998958;28;20322;-78